createdAt,value
2018-12-17T00:01:15.018Z,18.56
2018-12-17T00:03:41.354Z,18.56
2018-12-17T00:06:07.738Z,18.57
2018-12-17T00:08:34.137Z,18.55
2018-12-17T00:11:00.474Z,18.54
2018-12-17T00:13:26.856Z,18.50
2018-12-17T00:15:55.285Z,18.53
2018-12-17T00:18:19.527Z,18.56
2018-12-17T00:20:45.918Z,18.54
2018-12-17T00:23:12.247Z,18.56
2018-12-17T00:25:38.628Z,18.53
2018-12-17T00:28:08.102Z,18.54
2018-12-17T00:30:31.386Z,18.54
2018-12-17T00:32:57.738Z,18.53
2018-12-17T00:35:24.047Z,18.51
2018-12-17T00:37:50.503Z,18.51
2018-12-17T00:40:16.846Z,18.50
2018-12-17T00:42:43.178Z,18.50
2018-12-17T00:45:09.519Z,18.52
2018-12-17T00:47:35.946Z,18.52
2018-12-17T00:52:47.609Z,18.49
2018-12-17T00:55:14.006Z,18.52
2018-12-17T00:57:40.350Z,18.49
2018-12-17T01:00:06.767Z,18.50
2018-12-17T01:02:33.190Z,18.52
2018-12-17T01:04:59.522Z,18.69
2018-12-17T01:07:25.903Z,18.54
2018-12-17T01:09:52.240Z,18.51
2018-12-17T01:12:18.643Z,18.51
2018-12-17T01:14:45.002Z,18.50
2018-12-17T01:17:11.400Z,18.48
2018-12-17T01:19:37.759Z,18.42
2018-12-17T01:22:04.086Z,18.50
2018-12-17T01:24:30.495Z,18.47
2018-12-17T01:26:56.824Z,18.52
2018-12-17T01:29:23.225Z,18.49
2018-12-17T01:31:49.725Z,18.53
2018-12-17T01:34:16.074Z,18.50
2018-12-17T01:36:42.457Z,18.53
2018-12-17T01:39:08.849Z,18.58
2018-12-17T01:41:35.146Z,18.61
2018-12-17T01:44:01.497Z,18.55
2018-12-17T01:46:27.879Z,18.62
2018-12-17T01:48:54.207Z,18.58
2018-12-17T01:51:20.574Z,18.57
2018-12-17T01:53:46.904Z,18.55
2018-12-17T01:56:13.299Z,18.61
2018-12-17T01:58:39.670Z,18.57
2018-12-17T02:01:06.057Z,18.62
2018-12-17T02:03:32.474Z,18.58
2018-12-17T02:06:01.294Z,18.59
2018-12-17T02:08:27.625Z,18.68
2018-12-17T02:10:53.968Z,18.73
2018-12-17T02:13:20.409Z,18.83
2018-12-17T02:15:46.767Z,18.88
2018-12-17T02:18:13.101Z,18.97
2018-12-17T02:20:39.462Z,19.08
2018-12-17T02:23:05.805Z,19.18
2018-12-17T02:25:32.134Z,19.26
2018-12-17T02:27:58.525Z,19.29
2018-12-17T02:30:24.926Z,19.31
2018-12-17T02:32:51.303Z,19.43
2018-12-17T02:35:17.638Z,19.45
2018-12-17T02:37:44.052Z,19.51
2018-12-17T02:40:10.518Z,19.57
2018-12-17T02:42:37.062Z,19.61
2018-12-17T02:45:03.486Z,19.62
2018-12-17T02:47:29.818Z,19.70
2018-12-17T02:49:56.186Z,19.71
2018-12-17T02:52:22.648Z,19.72
2018-12-17T02:54:48.951Z,19.79
2018-12-17T02:57:15.353Z,19.85
2018-12-17T02:59:41.778Z,19.87
2018-12-17T03:02:08.188Z,19.94
2018-12-17T03:04:34.572Z,19.94
2018-12-17T03:07:01.082Z,19.97
2018-12-17T03:09:27.461Z,19.99
2018-12-17T03:11:53.842Z,20.00
2018-12-17T03:14:20.256Z,20.02
2018-12-17T03:16:46.581Z,20.06
2018-12-17T03:19:13.088Z,20.11
2018-12-17T03:21:39.449Z,20.11
2018-12-17T03:24:05.887Z,20.14
2018-12-17T03:26:32.280Z,20.14
2018-12-17T03:28:58.648Z,20.21
2018-12-17T03:31:24.976Z,20.19
2018-12-17T03:33:51.409Z,20.19
2018-12-17T03:36:17.788Z,20.22
2018-12-17T03:38:44.129Z,20.26
2018-12-17T03:41:10.478Z,20.27
2018-12-17T03:43:36.848Z,20.29
2018-12-17T03:46:03.184Z,20.30
2018-12-17T03:48:29.568Z,20.35
2018-12-17T03:50:55.896Z,20.39
2018-12-17T03:53:22.310Z,20.39
2018-12-17T03:55:48.639Z,20.44
2018-12-17T03:58:15.139Z,20.45
2018-12-17T04:00:41.556Z,20.49
2018-12-17T04:03:07.830Z,20.55
2018-12-17T04:05:34.170Z,20.58
2018-12-17T04:08:00.497Z,20.63
2018-12-17T04:10:26.845Z,20.64
2018-12-17T04:12:53.322Z,20.66
2018-12-17T04:15:19.882Z,20.72
2018-12-17T04:17:46.385Z,20.76
2018-12-17T04:20:12.732Z,20.78
2018-12-17T04:22:39.131Z,20.79
2018-12-17T04:25:05.474Z,20.83
2018-12-17T04:27:31.904Z,20.78
2018-12-17T04:29:58.291Z,20.95
2018-12-17T04:32:24.667Z,21.10
2018-12-17T04:34:51.068Z,21.22
2018-12-17T04:37:17.562Z,21.27
2018-12-17T04:39:43.978Z,21.34
2018-12-17T04:42:10.356Z,21.38
2018-12-17T04:44:36.668Z,21.43
2018-12-17T04:47:03.014Z,21.47
2018-12-17T04:49:29.370Z,21.52
2018-12-17T04:51:55.882Z,21.54
2018-12-17T04:54:22.210Z,21.58
2018-12-17T04:56:48.643Z,21.59
2018-12-17T04:59:15.096Z,21.63
2018-12-17T05:01:41.452Z,21.64
2018-12-17T05:04:10.466Z,21.67
2018-12-17T05:06:36.829Z,21.70
2018-12-17T05:09:03.225Z,21.73
2018-12-17T05:11:29.623Z,21.75
2018-12-17T05:13:55.984Z,21.77
2018-12-17T05:16:22.566Z,21.80
2018-12-17T05:18:48.917Z,21.81
2018-12-17T05:21:15.263Z,21.84
2018-12-17T05:23:41.720Z,21.83
2018-12-17T05:26:08.088Z,21.84
2018-12-17T05:28:34.479Z,21.91
2018-12-17T05:31:00.890Z,21.93
2018-12-17T05:33:27.238Z,21.93
2018-12-17T05:35:53.634Z,21.93
2018-12-17T05:38:19.943Z,21.93
2018-12-17T05:40:46.318Z,21.95
2018-12-17T05:43:12.780Z,22.01
2018-12-17T05:45:39.172Z,22.04
2018-12-17T05:48:05.568Z,22.04
2018-12-17T05:50:34.407Z,22.07
2018-12-17T05:52:58.322Z,22.07
2018-12-17T05:55:24.655Z,22.10
2018-12-17T05:57:51.051Z,22.11
2018-12-17T06:00:17.869Z,22.13
2018-12-17T06:02:44.317Z,22.19
2018-12-17T06:05:10.650Z,22.18
2018-12-17T06:07:36.975Z,22.17
2018-12-17T06:10:03.322Z,22.16
2018-12-17T06:12:29.673Z,22.04
2018-12-17T06:14:56.173Z,21.99
2018-12-17T06:17:22.501Z,22.16
2018-12-17T06:19:48.923Z,22.19
2018-12-17T06:22:15.219Z,22.22
2018-12-17T06:24:41.649Z,22.27
2018-12-17T06:27:08.016Z,22.29
2018-12-17T06:29:35.695Z,22.34
2018-12-17T06:32:00.825Z,22.23
2018-12-17T06:34:27.175Z,22.33
2018-12-17T06:36:53.583Z,22.35
2018-12-17T06:39:19.940Z,22.40
2018-12-17T06:41:46.451Z,22.38
2018-12-17T06:44:12.779Z,22.43
2018-12-17T06:46:39.385Z,22.41
2018-12-17T06:49:05.730Z,22.46
2018-12-17T06:51:32.115Z,22.49
2018-12-17T06:53:58.534Z,22.52
2018-12-17T06:56:24.865Z,22.49
2018-12-17T06:58:51.257Z,22.52
2018-12-17T07:01:17.652Z,22.54
2018-12-17T07:03:44.054Z,22.60
2018-12-17T07:06:10.457Z,22.61
2018-12-17T07:08:36.862Z,22.66
2018-12-17T07:11:03.397Z,22.69
2018-12-17T07:13:29.634Z,22.49
2018-12-17T07:15:56.032Z,22.70
2018-12-17T07:18:22.395Z,22.76
2018-12-17T07:20:49.018Z,22.77
2018-12-17T07:23:16.495Z,22.81
2018-12-17T07:25:42.848Z,22.85
2018-12-17T07:28:09.234Z,22.88
2018-12-17T07:30:37.265Z,22.96
2018-12-17T07:33:03.619Z,22.94
2018-12-17T07:35:30.021Z,22.94
2018-12-17T07:37:56.421Z,22.97
2018-12-17T07:40:22.802Z,22.95
2018-12-17T07:42:49.214Z,23.00
2018-12-17T07:45:15.566Z,23.02
2018-12-17T07:47:41.998Z,23.07
2018-12-17T07:50:08.429Z,23.06
2018-12-17T07:52:34.963Z,23.11
2018-12-17T07:55:01.391Z,23.09
2018-12-17T07:57:28.354Z,23.03
2018-12-17T07:59:56.889Z,23.07
2018-12-17T08:02:21.208Z,23.23
2018-12-17T08:04:47.600Z,23.23
2018-12-17T08:07:14.001Z,23.23
2018-12-17T08:09:40.394Z,23.26
2018-12-17T08:12:06.758Z,23.30
2018-12-17T08:14:33.283Z,23.31
2018-12-17T08:16:59.707Z,23.40
2018-12-17T08:19:26.078Z,23.41
2018-12-17T08:21:52.434Z,23.45
2018-12-17T08:24:18.917Z,23.52
2018-12-17T08:26:45.337Z,23.59
2018-12-17T08:29:11.866Z,23.49
2018-12-17T08:31:38.208Z,23.58
2018-12-17T08:34:04.597Z,23.66
2018-12-17T08:36:30.967Z,23.68
2018-12-17T08:38:57.381Z,23.67
2018-12-17T08:41:23.818Z,23.65
2018-12-17T08:43:50.145Z,23.62
2018-12-17T08:46:16.523Z,23.68
2018-12-17T08:48:43.626Z,23.79
2018-12-17T08:51:09.854Z,23.83
2018-12-17T08:53:36.231Z,23.85
2018-12-17T08:56:02.648Z,23.83
2018-12-17T08:58:29.162Z,23.92
2018-12-17T09:00:55.571Z,23.96
2018-12-17T09:03:22.359Z,23.83
2018-12-17T09:05:48.775Z,23.95
2018-12-17T09:08:15.105Z,23.94
2018-12-17T09:10:41.510Z,23.91
2018-12-17T09:13:08.473Z,23.98
2018-12-17T09:15:35.015Z,24.02
2018-12-17T09:18:01.401Z,24.05
2018-12-17T09:20:27.899Z,24.05
2018-12-17T09:22:54.341Z,24.03
2018-12-17T09:25:20.736Z,23.97
2018-12-17T09:27:47.128Z,23.97
2018-12-17T09:30:18.372Z,23.97
2018-12-17T09:32:39.978Z,23.95
2018-12-17T09:35:06.323Z,23.92
2018-12-17T09:37:32.731Z,23.96
2018-12-17T09:39:59.129Z,24.02
2018-12-17T09:42:25.564Z,24.01
2018-12-17T09:44:51.917Z,23.97
2018-12-17T09:47:18.300Z,23.92
2018-12-17T09:49:44.770Z,23.97
2018-12-17T09:52:11.188Z,23.95
2018-12-17T09:54:37.490Z,24.04
2018-12-17T09:57:03.859Z,24.01
2018-12-17T09:59:30.523Z,23.97
2018-12-17T10:01:56.967Z,24.02
2018-12-17T10:04:23.398Z,24.00
2018-12-17T10:06:49.848Z,24.05
2018-12-17T10:09:16.241Z,24.10
2018-12-17T10:11:42.803Z,24.14
2018-12-17T10:14:09.213Z,24.09
2018-12-17T10:16:35.686Z,24.11
2018-12-17T10:19:02.041Z,24.03
2018-12-17T10:21:28.416Z,24.04
2018-12-17T10:23:54.828Z,24.09
2018-12-17T10:26:21.266Z,24.15
2018-12-17T10:28:47.670Z,24.11
2018-12-17T10:31:14.029Z,24.05
2018-12-17T10:33:40.390Z,24.11
2018-12-17T10:36:06.799Z,24.16
2018-12-17T10:38:33.190Z,24.12
2018-12-17T10:40:59.791Z,24.12
2018-12-17T10:43:26.309Z,24.15
2018-12-17T10:45:52.753Z,24.18
2018-12-17T10:48:19.079Z,24.16
2018-12-17T10:50:45.674Z,24.10
2018-12-17T10:53:11.934Z,24.16
2018-12-17T10:55:38.468Z,24.19
2018-12-17T10:58:04.837Z,24.15
2018-12-17T11:00:39.281Z,24.13
2018-12-17T11:02:59.911Z,24.13
2018-12-17T11:05:26.390Z,24.18
2018-12-17T11:07:52.822Z,24.25
2018-12-17T11:10:19.236Z,24.21
2018-12-17T11:12:45.652Z,24.25
2018-12-17T11:15:15.034Z,24.29
2018-12-17T11:17:42.631Z,24.30
2018-12-17T11:20:09.211Z,24.31
2018-12-17T11:22:36.914Z,24.32
2018-12-17T11:25:03.449Z,24.32
2018-12-17T11:27:29.865Z,24.34
2018-12-17T11:29:56.395Z,24.39
2018-12-17T11:32:22.868Z,24.34
2018-12-17T11:34:49.470Z,24.34
2018-12-17T11:37:15.870Z,24.32
2018-12-17T11:39:42.234Z,24.38
2018-12-17T11:42:08.655Z,24.38
2018-12-17T11:44:35.125Z,24.41
2018-12-17T11:47:01.523Z,24.42
2018-12-17T11:49:27.960Z,24.45
2018-12-17T11:51:56.780Z,24.44
2018-12-17T11:54:22.973Z,24.48
2018-12-17T11:56:49.881Z,24.47
2018-12-17T11:59:16.455Z,24.47
2018-12-17T12:01:42.818Z,24.47
2018-12-17T12:04:09.252Z,24.45
2018-12-17T12:06:35.621Z,24.44
2018-12-17T12:09:02.144Z,24.45
2018-12-17T12:11:28.595Z,24.48
2018-12-17T12:13:55.084Z,24.50
2018-12-17T12:16:21.519Z,24.47
2018-12-17T12:18:48.982Z,24.47
2018-12-17T12:21:15.489Z,24.45
2018-12-17T12:23:42.021Z,24.51
2018-12-17T12:26:08.434Z,24.43
2018-12-17T12:28:35.061Z,24.45
2018-12-17T12:31:01.406Z,24.47
2018-12-17T12:33:27.859Z,24.50
2018-12-17T12:35:54.302Z,24.54
2018-12-17T12:38:20.671Z,24.51
2018-12-17T12:40:47.005Z,24.58
2018-12-17T12:43:13.861Z,24.50
2018-12-17T12:45:40.295Z,24.49
2018-12-17T12:48:06.832Z,24.54
2018-12-17T12:50:33.387Z,24.57
2018-12-17T12:52:59.808Z,24.56
2018-12-17T12:55:26.253Z,24.57
2018-12-17T12:57:53.161Z,24.53
2018-12-17T13:00:19.561Z,24.50
2018-12-17T13:02:46.101Z,24.53
2018-12-17T13:05:12.637Z,24.57
2018-12-17T13:07:39.101Z,24.59
2018-12-17T13:10:05.528Z,24.59
2018-12-17T13:12:31.904Z,24.56
2018-12-17T13:14:58.310Z,24.50
2018-12-17T13:17:24.734Z,24.56
2018-12-17T13:19:51.642Z,24.50
2018-12-17T13:22:17.969Z,24.57
2018-12-17T13:24:44.480Z,24.61
2018-12-17T13:27:10.937Z,24.55
2018-12-17T13:29:37.381Z,24.54
2018-12-17T13:32:03.744Z,24.55
2018-12-17T13:34:30.266Z,24.58
2018-12-17T13:36:56.637Z,24.48
2018-12-17T13:39:23.170Z,24.49
2018-12-17T13:41:49.751Z,24.50
2018-12-17T13:44:19.430Z,24.56
2018-12-17T13:46:45.518Z,24.54
2018-12-17T13:49:15.328Z,24.58
2018-12-17T13:51:44.577Z,24.59
2018-12-17T13:54:08.606Z,24.57
2018-12-17T13:56:35.014Z,24.58
2018-12-17T13:59:01.502Z,24.49
2018-12-17T14:01:27.872Z,24.54
2018-12-17T14:03:54.359Z,24.61
2018-12-17T14:06:20.826Z,24.49
2018-12-17T14:08:47.217Z,24.58
2018-12-17T14:11:13.657Z,24.55
2018-12-17T14:13:40.183Z,24.57
2018-12-17T14:16:06.696Z,24.56
2018-12-17T14:18:33.097Z,24.56
2018-12-17T14:20:59.483Z,24.57
2018-12-17T14:23:25.901Z,24.57
2018-12-17T14:25:52.366Z,24.59
2018-12-17T14:28:21.601Z,24.55
2018-12-17T14:30:47.863Z,24.53
2018-12-17T14:33:14.284Z,24.50
2018-12-17T14:35:40.718Z,24.44
2018-12-17T14:38:07.221Z,24.49
2018-12-17T14:40:33.747Z,24.45
2018-12-17T14:43:00.296Z,24.47
2018-12-17T14:45:26.793Z,24.34
2018-12-17T14:47:53.225Z,24.43
2018-12-17T14:50:19.666Z,24.45
2018-12-17T14:52:45.988Z,24.36
2018-12-17T14:55:12.557Z,24.39
2018-12-17T14:57:39.027Z,24.41
2018-12-17T15:00:09.820Z,24.46
2018-12-17T15:02:36.224Z,24.34
2018-12-17T15:05:02.714Z,24.25
2018-12-17T15:07:29.891Z,24.30
2018-12-17T15:09:55.654Z,24.38
2018-12-17T15:12:22.036Z,24.39
2018-12-17T15:14:48.386Z,24.33
2018-12-17T15:17:14.895Z,24.38
2018-12-17T15:19:41.272Z,24.45
2018-12-17T15:22:07.655Z,24.45
2018-12-17T15:24:40.382Z,24.45
2018-12-17T15:27:01.703Z,24.45
2018-12-17T15:29:28.026Z,24.49
2018-12-17T15:31:54.387Z,24.48
2018-12-17T15:34:20.795Z,24.45
2018-12-17T15:36:47.209Z,24.42
2018-12-17T15:39:13.550Z,24.47
2018-12-17T15:41:39.963Z,24.45
2018-12-17T15:44:06.372Z,24.53
2018-12-17T15:46:32.720Z,24.44
2018-12-17T15:48:59.134Z,24.36
2018-12-17T15:51:25.501Z,24.42
2018-12-17T15:53:51.897Z,24.41
2018-12-17T15:56:18.273Z,24.16
2018-12-17T15:58:44.745Z,24.24
2018-12-17T16:01:11.069Z,24.32
2018-12-17T16:03:37.672Z,24.39
2018-12-17T16:06:04.097Z,24.26
2018-12-17T16:08:30.577Z,24.35
2018-12-17T16:10:56.891Z,24.38
2018-12-17T16:13:23.304Z,24.33
2018-12-17T16:15:49.735Z,24.38
2018-12-17T16:18:16.155Z,24.29
2018-12-17T16:20:42.540Z,24.24
2018-12-17T16:23:08.856Z,24.33
2018-12-17T16:25:35.260Z,24.32
2018-12-17T16:28:01.703Z,24.33
2018-12-17T16:30:28.032Z,24.28
2018-12-17T16:32:54.457Z,24.35
2018-12-17T16:35:20.859Z,24.28
2018-12-17T16:37:47.222Z,24.24
2018-12-17T16:40:13.640Z,24.27
2018-12-17T16:42:40.126Z,24.23
2018-12-17T16:45:06.582Z,24.27
2018-12-17T16:47:32.904Z,24.26
2018-12-17T16:49:59.306Z,24.16
2018-12-17T16:52:25.655Z,24.20
2018-12-17T16:54:52.057Z,24.19
2018-12-17T16:57:18.401Z,24.17
2018-12-17T16:59:44.769Z,24.14
2018-12-17T17:02:11.167Z,24.12
2018-12-17T17:04:37.507Z,24.14
2018-12-17T17:07:06.231Z,24.11
2018-12-17T17:09:32.873Z,24.09
2018-12-17T17:11:59.224Z,24.11
2018-12-17T17:14:25.560Z,24.09
2018-12-17T17:16:51.977Z,24.08
2018-12-17T17:19:18.340Z,23.99
2018-12-17T17:21:44.707Z,24.00
2018-12-17T17:24:11.080Z,23.98
2018-12-17T17:26:37.514Z,23.95
2018-12-17T17:29:03.933Z,23.88
2018-12-17T17:31:30.370Z,23.84
2018-12-17T17:33:56.813Z,23.80
2018-12-17T17:36:23.146Z,23.80
2018-12-17T17:38:49.508Z,23.74
2018-12-17T17:41:15.903Z,23.68
2018-12-17T17:43:42.261Z,23.67
2018-12-17T17:46:08.594Z,23.65
2018-12-17T17:48:34.966Z,23.60
2018-12-17T17:51:01.328Z,23.58
2018-12-17T17:53:27.762Z,23.52
2018-12-17T17:55:54.128Z,23.49
2018-12-17T17:58:20.529Z,23.47
2018-12-17T18:00:46.920Z,23.45
2018-12-17T18:03:13.407Z,23.40
2018-12-17T18:05:39.715Z,23.39
2018-12-17T18:08:06.121Z,23.35
2018-12-17T18:10:32.485Z,23.35
2018-12-17T18:12:58.823Z,23.31
2018-12-17T18:15:25.176Z,23.29
2018-12-17T18:17:51.535Z,23.28
2018-12-17T18:20:17.899Z,23.26
2018-12-17T18:22:44.353Z,23.23
2018-12-17T18:25:10.745Z,23.20
2018-12-17T18:27:37.223Z,23.20
2018-12-17T18:30:03.644Z,23.20
2018-12-17T18:32:30.032Z,23.15
2018-12-17T18:34:56.378Z,23.13
2018-12-17T18:37:22.770Z,23.15
2018-12-17T18:39:49.105Z,23.12
2018-12-17T18:42:15.575Z,23.10
2018-12-17T18:44:42.044Z,23.08
2018-12-17T18:47:08.427Z,23.06
2018-12-17T18:49:34.799Z,23.05
2018-12-17T18:52:01.190Z,23.05
2018-12-17T18:54:27.768Z,23.00
2018-12-17T18:56:54.100Z,22.99
2018-12-17T18:59:20.490Z,22.96
2018-12-17T19:01:46.927Z,22.92
2018-12-17T19:04:13.435Z,22.90
2018-12-17T19:06:39.705Z,22.87
2018-12-17T19:09:06.093Z,22.87
2018-12-17T19:11:32.457Z,22.84
2018-12-17T19:13:58.915Z,22.81
2018-12-17T19:16:25.284Z,22.70
2018-12-17T19:18:51.620Z,22.68
2018-12-17T19:21:18.018Z,22.68
2018-12-17T19:23:44.353Z,22.61
2018-12-17T19:26:10.819Z,22.57
2018-12-17T19:28:37.174Z,22.55
2018-12-17T19:31:03.578Z,22.50
2018-12-17T19:33:29.986Z,22.42
2018-12-17T19:35:56.410Z,22.37
2018-12-17T19:38:22.743Z,22.37
2018-12-17T19:40:49.202Z,22.37
2018-12-17T19:43:15.638Z,22.38
2018-12-17T19:45:41.967Z,22.32
2018-12-17T19:48:08.453Z,22.31
2018-12-17T19:50:34.834Z,22.24
2018-12-17T19:53:01.190Z,22.18
2018-12-17T19:55:27.559Z,22.19
2018-12-17T19:57:53.911Z,22.17
2018-12-17T20:00:20.290Z,22.16
2018-12-17T20:02:47.086Z,22.11
2018-12-17T20:05:13.296Z,22.06
2018-12-17T20:07:39.633Z,22.01
2018-12-17T20:10:06.023Z,22.03
2018-12-17T20:12:32.360Z,22.06
2018-12-17T20:14:58.804Z,22.03
2018-12-17T20:17:25.175Z,21.97
2018-12-17T20:19:52.876Z,21.94
2018-12-17T20:22:17.984Z,21.90
2018-12-17T20:24:44.360Z,21.88
2018-12-17T20:27:10.886Z,21.89
2018-12-17T20:29:37.249Z,21.87
2018-12-17T20:32:03.632Z,21.85
2018-12-17T20:34:30.014Z,21.79
2018-12-17T20:36:56.410Z,21.82
2018-12-17T20:39:22.811Z,21.74
2018-12-17T20:41:49.153Z,21.65
2018-12-17T20:44:15.504Z,21.69
2018-12-17T20:46:41.903Z,21.70
2018-12-17T20:49:08.365Z,21.70
2018-12-17T20:51:34.733Z,21.65
2018-12-17T20:54:01.104Z,21.66
2018-12-17T20:56:27.436Z,21.57
2018-12-17T20:58:53.857Z,21.53
2018-12-17T21:01:20.199Z,21.59
2018-12-17T21:03:46.677Z,21.60
2018-12-17T21:06:12.980Z,21.55
2018-12-17T21:08:39.372Z,21.52
2018-12-17T21:11:05.695Z,21.55
2018-12-17T21:13:32.050Z,21.48
2018-12-17T21:15:58.442Z,21.49
2018-12-17T21:18:24.808Z,21.47
2018-12-17T21:20:51.184Z,21.46
2018-12-17T21:23:17.585Z,21.42
2018-12-17T21:25:43.935Z,21.45
2018-12-17T21:28:10.367Z,21.44
2018-12-17T21:30:36.798Z,21.39
2018-12-17T21:33:06.684Z,21.40
2018-12-17T21:35:29.530Z,21.31
2018-12-17T21:37:55.943Z,21.30
2018-12-17T21:40:22.315Z,21.35
2018-12-17T21:42:48.691Z,21.32
2018-12-17T21:45:15.035Z,21.29
2018-12-17T21:47:41.437Z,21.27
2018-12-17T21:50:07.808Z,21.24
2018-12-17T21:52:34.225Z,21.23
2018-12-17T21:55:00.626Z,21.25
2018-12-17T21:57:26.999Z,21.24
2018-12-17T21:59:53.348Z,21.21
2018-12-17T22:02:19.824Z,21.22
2018-12-17T22:04:46.161Z,21.20
2018-12-17T22:07:12.491Z,21.14
2018-12-17T22:09:38.820Z,21.14
2018-12-17T22:12:05.214Z,21.16
2018-12-17T22:14:31.567Z,21.14
2018-12-17T22:16:57.952Z,21.10
2018-12-17T22:19:24.284Z,21.08
2018-12-17T22:21:50.688Z,21.10
2018-12-17T22:24:17.017Z,21.08
2018-12-17T22:26:43.350Z,21.07
2018-12-17T22:29:09.727Z,21.03
2018-12-17T22:31:36.059Z,21.03
2018-12-17T22:34:02.494Z,21.03
2018-12-17T22:36:28.864Z,21.02
2018-12-17T22:38:55.260Z,21.01
2018-12-17T22:41:21.594Z,20.99
2018-12-17T22:43:48.040Z,20.95
2018-12-17T22:46:14.412Z,20.99
2018-12-17T22:48:40.806Z,20.95
2018-12-17T22:51:07.168Z,20.95
2018-12-17T22:53:33.599Z,20.93
2018-12-17T22:56:00.005Z,20.93
2018-12-17T22:58:26.413Z,20.90
2018-12-17T23:00:52.743Z,20.87
2018-12-17T23:03:19.103Z,20.90
2018-12-17T23:05:45.460Z,20.89
2018-12-17T23:08:11.824Z,20.85
2018-12-17T23:10:38.194Z,20.85
2018-12-17T23:13:04.599Z,20.81
2018-12-17T23:15:31.022Z,20.83
2018-12-17T23:17:57.471Z,20.85
2018-12-17T23:20:23.760Z,20.80
2018-12-17T23:22:50.171Z,20.81
2018-12-17T23:25:16.604Z,20.83
2018-12-17T23:27:43.059Z,20.79
2018-12-17T23:30:09.449Z,20.80
2018-12-17T23:32:35.781Z,20.78
2018-12-17T23:35:02.242Z,20.77
2018-12-17T23:37:28.523Z,20.78
2018-12-17T23:39:54.953Z,20.77
2018-12-17T23:42:21.394Z,20.76
2018-12-17T23:44:47.663Z,20.73
2018-12-17T23:47:14.091Z,20.71
2018-12-17T23:49:40.404Z,20.71
2018-12-17T23:52:06.835Z,20.72
2018-12-17T23:54:33.165Z,20.71
2018-12-17T23:56:59.538Z,20.71
2018-12-17T23:59:25.941Z,20.69
